Time;durP1;ratioP1;P1;durP2;ratioP2;P2;SDS_P1;SDS_P2;PMS_P1;PMS_P2;Temp;Humidity;BMP_temperature;BMP_pressure;BME280_temperature;BME280_humidity;BME280_pressure;Samples;Min_cycle;Max_cycle;Signal;HPM_P1;HPM_P2
2023/06/06 00:02:00;;;;;;;4.32;2.70;;;18.30;48.60;;;;;;5032574;28;20408;-58
2023/06/06 00:04:27;;;;;;;4.00;3.00;;;18.40;48.80;;;;;;5033557;28;20064;-60
2023/06/06 00:06:52;;;;;;;3.58;2.83;;;18.30;48.70;;;;;;5032527;28;20021;-58
2023/06/06 00:09:18;;;;;;;3.33;2.72;;;18.30;48.60;;;;;;5033678;28;20087;-59
2023/06/06 00:11:46;;;;;;;2.92;2.38;;;18.30;48.60;;;;;;5033429;28;20034;-59
2023/06/06 00:14:18;;;;;;;3.60;2.95;;;18.30;48.60;;;;;;5033610;28;20041;-57
2023/06/06 00:16:48;;;;;;;2.80;2.50;;;18.30;48.60;;;;;;5033591;28;20034;-58
2023/06/06 00:19:15;;;;;;;5.70;2.90;;;18.30;48.60;;;;;;5033496;28;20029;-58
2023/06/06 00:21:41;;;;;;;3.78;2.63;;;18.20;48.60;;;;;;5033419;28;20025;-58
2023/06/06 00:24:07;;;;;;;5.28;2.85;;;18.20;48.50;;;;;;5033024;28;20113;-58
2023/06/06 00:26:33;;;;;;;3.20;2.53;;;18.20;48.60;;;;;;5032806;28;20072;-58
2023/06/06 00:28:59;;;;;;;4.50;2.80;;;18.20;48.70;;;;;;5033197;28;20067;-59
2023/06/06 00:31:24;;;;;;;3.65;2.80;;;18.20;48.70;;;;;;5033277;28;20109;-58
2023/06/06 00:33:50;;;;;;;5.80;3.10;;;18.20;48.80;;;;;;5033753;28;20032;-58
2023/06/06 00:36:16;;;;;;;6.30;3.00;;;18.10;48.80;;;;;;5032890;28;20079;-58
2023/06/06 00:38:41;;;;;;;4.20;2.85;;;18.20;49.10;;;;;;5033270;28;20022;-59
2023/06/06 00:41:07;;;;;;;3.70;2.70;;;18.20;49.10;;;;;;5033106;28;20021;-59
2023/06/06 00:43:33;;;;;;;6.45;3.85;;;18.10;49.20;;;;;;5033026;28;20558;-58
2023/06/06 00:45:59;;;;;;;5.50;3.50;;;18.10;49.30;;;;;;5032811;28;20053;-59
2023/06/06 00:48:25;;;;;;;4.28;3.13;;;18.10;49.20;;;;;;5033036;28;20026;-57
2023/06/06 00:50:52;;;;;;;4.32;3.10;;;18.10;49.30;;;;;;5031675;28;20033;-59
2023/06/06 00:53:20;;;;;;;5.57;3.63;;;18.00;49.40;;;;;;5032667;28;20029;-59
2023/06/06 00:55:46;;;;;;;5.10;2.95;;;18.00;49.40;;;;;;5032707;28;20040;-58
2023/06/06 00:58:12;;;;;;;3.40;2.92;;;18.00;49.50;;;;;;5032110;28;20038;-57
2023/06/06 01:00:39;;;;;;;4.22;3.30;;;18.00;49.70;;;;;;5032343;28;20049;-59
2023/06/06 01:03:09;;;;;;;4.00;3.00;;;18.00;49.80;;;;;;5032558;28;20045;-58
2023/06/06 01:05:38;;;;;;;5.00;2.78;;;18.00;49.90;;;;;;5031271;28;20032;-56
2023/06/06 01:08:04;;;;;;;3.40;2.88;;;18.00;50.00;;;;;;5032450;28;20064;-59
2023/06/06 01:10:31;;;;;;;3.38;2.90;;;18.00;50.00;;;;;;5032646;28;20076;-59
2023/06/06 01:13:16;;;;;;;4.35;2.90;;;18.00;50.20;;;;;;5032302;28;20511;-57
2023/06/06 01:15:47;;;;;;;4.82;3.00;;;18.00;50.20;;;;;;5032545;28;20032;-57
2023/06/06 01:18:13;;;;;;;4.75;3.00;;;17.90;50.20;;;;;;5032605;28;20060;-57
2023/06/06 01:20:42;;;;;;;4.45;2.80;;;17.90;50.20;;;;;;5032575;28;20075;-59
2023/06/06 01:23:11;;;;;;;4.32;3.00;;;17.90;50.20;;;;;;5032120;28;20060;-58
2023/06/06 01:25:40;;;;;;;5.57;2.90;;;17.90;50.20;;;;;;5032419;28;20036;-58
2023/06/06 01:28:13;;;;;;;7.28;3.00;;;17.90;50.20;;;;;;5032338;28;20030;-58
2023/06/06 01:30:41;;;;;;;5.53;3.00;;;17.90;50.30;;;;;;5031771;28;20428;-57
2023/06/06 01:33:37;;;;;;;4.43;2.90;;;17.90;50.40;;;;;;5031796;28;20077;-59
2023/06/06 01:36:08;;;;;;;4.88;2.60;;;17.90;50.20;;;;;;5032049;28;20104;-58
2023/06/06 01:38:44;;;;;;;5.13;2.90;;;17.80;50.00;;;;;;5031760;28;20056;-58
2023/06/06 01:41:12;;;;;;;3.88;2.72;;;17.80;50.30;;;;;;5032112;28;20025;-58
2023/06/06 01:43:40;;;;;;;6.10;3.15;;;17.80;50.20;;;;;;5030482;28;20435;-56
2023/06/06 01:46:08;;;;;;;4.85;3.05;;;17.80;50.20;;;;;;5031726;28;20053;-58
2023/06/06 01:48:35;;;;;;;4.50;3.10;;;17.80;51.20;;;;;;5031888;28;20032;-59
2023/06/06 01:51:02;;;;;;;4.65;3.30;;;17.80;50.70;;;;;;5031603;28;20446;-58
2023/06/06 01:53:27;;;;;;;5.07;2.97;;;17.80;50.50;;;;;;5031908;28;20034;-59
2023/06/06 01:55:54;;;;;;;4.85;2.72;;;17.80;50.50;;;;;;5031521;28;20080;-58
2023/06/06 01:58:20;;;;;;;4.68;2.63;;;17.90;50.60;;;;;;5031817;28;20083;-56
2023/06/06 02:00:45;;;;;;;6.22;2.95;;;17.80;50.40;;;;;;5031422;28;20053;-59
2023/06/06 02:03:11;;;;;;;4.55;3.00;;;17.80;50.50;;;;;;5030972;28;20033;-55
2023/06/06 02:05:37;;;;;;;5.70;3.03;;;17.80;50.30;;;;;;5031071;28;20037;-59
2023/06/06 02:08:03;;;;;;;5.32;3.03;;;17.80;50.30;;;;;;5031673;28;20097;-58
2023/06/06 02:10:29;;;;;;;4.05;2.65;;;17.80;50.50;;;;;;5031355;28;20524;-58
2023/06/06 02:12:54;;;;;;;4.13;2.88;;;17.80;50.50;;;;;;5031556;28;20056;-58
2023/06/06 02:15:21;;;;;;;3.97;3.45;;;17.80;50.60;;;;;;5031388;28;20044;-57
2023/06/06 02:17:46;;;;;;;5.10;3.40;;;17.80;50.80;;;;;;5031455;28;20025;-58
2023/06/06 02:20:12;;;;;;;4.75;3.15;;;17.70;50.90;;;;;;5031639;28;20116;-58
2023/06/06 02:22:39;;;;;;;5.25;2.90;;;17.70;51.00;;;;;;5031265;28;20508;-58
2023/06/06 02:25:05;;;;;;;5.57;3.10;;;17.70;51.00;;;;;;5030925;28;20029;-57
2023/06/06 02:27:33;;;;;;;3.58;2.50;;;17.70;51.20;;;;;;5031280;28;20075;-59
2023/06/06 02:29:58;;;;;;;4.78;3.10;;;17.70;51.00;;;;;;5031184;28;20044;-59
2023/06/06 02:32:24;;;;;;;4.75;2.88;;;17.70;51.00;;;;;;5029846;28;20034;-58
2023/06/06 02:34:50;;;;;;;4.80;2.63;;;17.70;51.20;;;;;;5030989;28;20095;-59
2023/06/06 02:37:16;;;;;;;2.85;2.38;;;17.70;51.10;;;;;;5030615;28;20546;-55
2023/06/06 02:39:41;;;;;;;4.25;2.70;;;17.70;51.10;;;;;;5031060;28;20056;-56
2023/06/06 02:42:07;;;;;;;4.88;3.22;;;17.80;51.20;;;;;;5031273;28;20034;-59
2023/06/06 02:44:33;;;;;;;4.30;3.20;;;17.80;51.20;;;;;;5031126;28;20026;-58
2023/06/06 02:46:59;;;;;;;4.38;3.00;;;17.80;51.30;;;;;;5030981;28;20476;-58
2023/06/06 02:49:27;;;;;;;5.03;3.40;;;17.80;51.20;;;;;;5031338;28;20037;-53
2023/06/06 02:51:53;;;;;;;6.80;3.20;;;17.80;51.20;;;;;;5031368;28;20058;-58
2023/06/06 02:54:19;;;;;;;7.75;3.40;;;17.80;51.30;;;;;;5029461;28;20033;-57
2023/06/06 02:56:44;;;;;;;4.93;3.30;;;17.80;51.30;;;;;;5029268;28;20104;-57
2023/06/06 02:59:10;;;;;;;5.63;3.40;;;17.90;51.30;;;;;;5029570;28;20405;-57
2023/06/06 03:01:36;;;;;;;4.20;3.22;;;17.90;51.30;;;;;;5028920;28;20053;-56
2023/06/06 03:04:03;;;;;;;4.78;3.42;;;17.90;51.30;;;;;;5029459;28;20025;-59
2023/06/06 03:06:32;;;;;;;4.47;3.15;;;18.00;51.40;;;;;;5029583;28;20493;-58
2023/06/06 03:08:58;;;;;;;6.25;3.35;;;18.00;51.50;;;;;;5029155;28;20392;-58
2023/06/06 03:11:25;;;;;;;7.57;3.38;;;18.00;51.50;;;;;;5028986;28;20021;-58
2023/06/06 03:13:51;;;;;;;5.30;3.50;;;18.10;51.50;;;;;;5029410;28;20481;-59
2023/06/06 03:16:17;;;;;;;6.85;3.55;;;18.10;51.50;;;;;;5029748;28;20380;-58
2023/06/06 03:18:46;;;;;;;4.43;3.30;;;18.20;51.30;;;;;;5029783;28;20034;-58
2023/06/06 03:21:12;;;;;;;6.78;3.72;;;18.30;51.30;;;;;;5030860;28;20088;-58
2023/06/06 03:23:38;;;;;;;5.50;3.45;;;18.30;51.20;;;;;;5030850;28;20029;-58
2023/06/06 03:26:04;;;;;;;3.78;3.35;;;18.40;51.10;;;;;;5029287;28;20477;-59
2023/06/06 03:28:31;;;;;;;7.30;3.70;;;18.50;51.20;;;;;;5030756;28;20049;-58
2023/06/06 03:30:58;;;;;;;4.68;3.40;;;18.70;51.50;;;;;;5028506;28;20029;-57
2023/06/06 03:33:23;;;;;;;5.55;3.80;;;19.00;51.50;;;;;;5028833;28;20029;-58
2023/06/06 03:35:50;;;;;;;5.50;3.50;;;19.40;51.00;;;;;;5028357;28;20041;-56
2023/06/06 03:38:15;;;;;;;4.65;3.30;;;19.80;50.50;;;;;;5030237;28;20029;-59
2023/06/06 03:40:41;;;;;;;6.00;3.55;;;20.20;49.90;;;;;;5032372;28;20349;-58
2023/06/06 03:43:07;;;;;;;4.65;3.28;;;20.60;49.10;;;;;;5031618;28;20450;-57
2023/06/06 03:45:33;;;;;;;6.80;3.28;;;21.20;48.50;;;;;;5031836;28;20014;-57
2023/06/06 03:47:58;;;;;;;5.80;3.20;;;22.00;47.80;;;;;;5030629;28;20067;-58
2023/06/06 03:50:24;;;;;;;6.45;3.00;;;22.90;47.00;;;;;;5032182;28;20029;-59
2023/06/06 03:52:50;;;;;;;4.80;3.30;;;23.80;45.70;;;;;;5033098;28;20083;-58
2023/06/06 03:55:15;;;;;;;4.30;3.10;;;24.70;44.50;;;;;;5034078;28;20477;-59
2023/06/06 03:57:41;;;;;;;6.20;3.40;;;25.50;43.40;;;;;;5033675;28;20040;-59
2023/06/06 04:00:10;;;;;;;3.22;2.80;;;26.30;42.80;;;;;;5033953;28;20057;-59
2023/06/06 04:02:37;;;;;;;4.60;3.00;;;27.00;41.90;;;;;;5033357;28;20124;-59
2023/06/06 04:05:04;;;;;;;5.13;3.15;;;27.80;41.40;;;;;;5033589;28;20029;-59
2023/06/06 04:07:31;;;;;;;4.30;2.95;;;28.50;41.30;;;;;;5033480;28;20024;-61
2023/06/06 04:09:57;;;;;;;3.58;2.88;;;29.20;39.90;;;;;;5033574;28;20386;-59
2023/06/06 04:12:22;;;;;;;5.97;2.85;;;29.80;39.00;;;;;;5033529;28;20104;-60
2023/06/06 04:14:48;;;;;;;4.95;3.00;;;30.30;38.20;;;;;;5033246;28;20116;-59
2023/06/06 04:17:14;;;;;;;3.63;2.67;;;30.70;37.80;;;;;;5033526;28;20084;-59
2023/06/06 04:19:40;;;;;;;7.97;3.20;;;31.10;37.40;;;;;;5033210;28;20049;-60
2023/06/06 04:22:05;;;;;;;5.38;3.10;;;31.60;37.00;;;;;;5033128;28;20069;-60
2023/06/06 04:24:32;;;;;;;5.32;2.72;;;32.10;36.90;;;;;;5033353;28;20048;-60
2023/06/06 04:27:03;;;;;;;5.57;2.80;;;32.60;36.20;;;;;;5032495;28;20129;-60
2023/06/06 04:29:32;;;;;;;3.45;2.50;;;33.00;35.80;;;;;;5032883;28;20037;-60
2023/06/06 04:31:59;;;;;;;3.67;2.67;;;33.50;35.40;;;;;;5033122;28;20045;-58
2023/06/06 04:34:29;;;;;;;4.32;2.70;;;33.80;35.20;;;;;;5033065;28;20500;-60
2023/06/06 04:37:01;;;;;;;3.03;2.17;;;34.30;35.00;;;;;;5033345;28;20388;-60
2023/06/06 04:39:28;;;;;;;3.60;2.45;;;34.60;34.50;;;;;;5033213;28;20029;-57
2023/06/06 04:41:56;;;;;;;5.40;2.70;;;35.00;34.30;;;;;;5033099;28;20033;-58
2023/06/06 04:44:23;;;;;;;8.48;2.90;;;35.30;33.80;;;;;;5033079;28;20033;-58
2023/06/06 04:46:52;;;;;;;3.60;2.00;;;35.70;33.60;;;;;;5033109;28;20052;-58
2023/06/06 04:49:21;;;;;;;4.13;2.50;;;35.90;33.30;;;;;;5031731;28;20033;-56
2023/06/06 04:51:47;;;;;;;6.43;2.42;;;36.20;33.10;;;;;;5032642;28;20022;-59
2023/06/06 04:54:13;;;;;;;3.38;2.30;;;36.50;32.90;;;;;;5032921;28;20477;-59
2023/06/06 04:56:40;;;;;;;2.45;2.22;;;36.70;32.80;;;;;;5032835;28;20477;-58
2023/06/06 04:59:06;;;;;;;4.18;2.13;;;37.00;32.30;;;;;;5032767;28;20481;-59
2023/06/06 05:01:41;;;;;;;4.30;2.20;;;37.30;32.20;;;;;;5032202;28;20130;-56
2023/06/06 05:04:07;;;;;;;3.75;2.40;;;37.40;32.10;;;;;;5032731;28;20034;-58
2023/06/06 05:06:34;;;;;;;4.35;2.20;;;37.50;31.80;;;;;;5031408;28;20036;-59
2023/06/06 05:09:04;;;;;;;3.85;2.25;;;37.40;31.60;;;;;;5031457;28;20520;-58
2023/06/06 05:11:30;;;;;;;2.78;2.15;;;36.90;31.60;;;;;;5031534;28;20033;-58
2023/06/06 05:13:56;;;;;;;5.22;2.30;;;36.20;31.50;;;;;;5032556;28;20284;-58
2023/06/06 05:16:22;;;;;;;4.55;2.38;;;35.50;31.70;;;;;;5032150;28;20029;-58
2023/06/06 05:18:48;;;;;;;3.03;2.38;;;34.70;32.20;;;;;;5032087;28;20052;-58
2023/06/06 05:21:18;;;;;;;2.60;2.13;;;33.80;32.70;;;;;;5031833;28;20076;-58
2023/06/06 05:23:44;;;;;;;;;;;33.00;33.00;;;;;;5032353;28;20029;-58
2023/06/06 05:26:10;;;;;;;3.38;2.28;;;32.30;33.60;;;;;;5032232;28;19920;-58
2023/06/06 05:28:37;;;;;;;3.47;2.70;;;31.60;34.00;;;;;;5032134;28;20056;-58
2023/06/06 05:31:05;;;;;;;6.15;3.00;;;31.00;34.60;;;;;;5031917;28;20390;-58
2023/06/06 05:33:31;;;;;;;3.72;2.30;;;30.30;35.20;;;;;;5031438;28;20034;-58
2023/06/06 05:35:57;;;;;;;5.68;2.78;;;29.80;35.60;;;;;;5030809;28;20418;-57
2023/06/06 05:38:24;;;;;;;4.05;2.05;;;29.30;36.00;;;;;;5031407;28;20030;-58
2023/06/06 05:40:49;;;;;;;4.85;2.40;;;29.00;36.30;;;;;;5031476;28;20026;-58
2023/06/06 05:43:16;;;;;;;3.90;2.75;;;28.70;36.50;;;;;;5030328;28;20071;-57
2023/06/06 05:45:41;;;;;;;3.38;2.20;;;28.50;36.80;;;;;;5031195;28;20037;-58
2023/06/06 05:48:07;;;;;;;5.50;2.67;;;28.30;37.10;;;;;;5031259;28;20500;-59
2023/06/06 05:50:33;;;;;;;4.85;2.60;;;28.10;37.40;;;;;;5031925;28;20049;-57
2023/06/06 05:52:59;;;;;;;3.30;2.30;;;27.90;37.80;;;;;;5021254;28;20457;-58
2023/06/06 05:55:29;;;;;;;3.95;2.90;;;27.70;37.90;;;;;;5017557;28;20051;-57
2023/06/06 05:57:58;;;;;;;6.83;2.80;;;27.60;37.90;;;;;;5017883;28;20091;-58
2023/06/06 06:00:25;;;;;;;4.03;2.40;;;27.50;38.30;;;;;;5022124;28;20113;-56
2023/06/06 06:02:53;;;;;;;4.05;2.72;;;27.30;38.50;;;;;;5027368;28;20095;-58
2023/06/06 06:05:19;;;;;;;4.65;3.22;;;27.30;38.60;;;;;;5027206;28;20481;-58
2023/06/06 06:07:47;;;;;;;5.45;2.85;;;27.20;38.70;;;;;;5029526;28;20104;-58
2023/06/06 06:10:13;;;;;;;4.45;2.88;;;27.00;38.90;;;;;;5029559;28;20068;-58
2023/06/06 06:12:40;;;;;;;4.85;2.60;;;26.90;39.00;;;;;;5029915;28;20032;-58
2023/06/06 06:15:06;;;;;;;2.78;2.30;;;26.80;39.00;;;;;;5029949;28;20469;-58
2023/06/06 06:17:32;;;;;;;5.80;2.85;;;26.70;39.40;;;;;;5030451;28;20078;-58
2023/06/06 06:20:00;;;;;;;3.50;2.78;;;26.60;39.40;;;;;;5029631;28;20124;-55
2023/06/06 06:22:25;;;;;;;4.20;2.90;;;26.60;39.40;;;;;;5028312;28;20037;-58
2023/06/06 06:24:51;;;;;;;4.82;2.83;;;26.50;39.60;;;;;;5029967;28;20030;-58
2023/06/06 06:27:17;;;;;;;7.18;3.10;;;26.50;39.90;;;;;;5031087;28;20029;-58
2023/06/06 06:29:43;;;;;;;6.53;2.58;;;26.50;40.00;;;;;;5030215;28;20025;-56
2023/06/06 06:32:08;;;;;;;4.40;3.15;;;26.50;40.20;;;;;;5029958;28;20029;-58
2023/06/06 06:34:34;;;;;;;6.65;2.97;;;26.50;40.40;;;;;;5030928;28;20427;-58
2023/06/06 06:37:01;;;;;;;5.68;2.53;;;26.50;40.70;;;;;;5031270;28;20052;-58
2023/06/06 06:39:26;;;;;;;6.03;2.90;;;26.40;40.60;;;;;;5029607;28;20401;-58
2023/06/06 06:41:52;;;;;;;3.58;2.70;;;26.40;40.60;;;;;;5029059;28;20025;-57
2023/06/06 06:44:18;;;;;;;5.22;2.85;;;26.40;40.90;;;;;;5030666;28;20029;-60
2023/06/06 06:46:44;;;;;;;2.53;2.28;;;26.30;40.90;;;;;;5030924;28;20025;-58
2023/06/06 06:49:15;;;;;;;3.83;2.90;;;26.30;40.80;;;;;;5031113;28;20546;-58
2023/06/06 06:51:41;;;;;;;4.38;2.58;;;26.20;40.80;;;;;;5030834;28;20030;-56
2023/06/06 06:54:11;;;;;;;5.20;2.60;;;26.20;40.90;;;;;;5030098;28;20048;-57
2023/06/06 06:56:37;;;;;;;6.05;2.60;;;26.20;40.80;;;;;;5031028;28;20039;-58
2023/06/06 06:59:03;;;;;;;4.35;2.60;;;26.10;40.80;;;;;;5030812;28;20515;-58
2023/06/06 07:01:29;;;;;;;3.55;2.50;;;26.10;40.80;;;;;;5030255;28;20501;-58
2023/06/06 07:03:55;;;;;;;2.90;2.60;;;26.10;41.10;;;;;;5030505;28;20037;-58
2023/06/06 07:06:22;;;;;;;4.22;2.50;;;26.10;41.40;;;;;;5030814;28;20029;-58
2023/06/06 07:08:49;;;;;;;3.35;2.88;;;26.10;41.10;;;;;;5030985;28;20093;-58
2023/06/06 07:11:15;;;;;;;4.00;2.60;;;26.10;41.20;;;;;;5031666;28;20030;-58
2023/06/06 07:13:41;;;;;;;7.78;2.78;;;26.10;41.20;;;;;;5034830;28;20025;-58
2023/06/06 07:16:08;;;;;;;6.28;2.50;;;26.00;40.90;;;;;;5034462;28;20036;-58
2023/06/06 07:18:34;;;;;;;4.80;2.45;;;26.00;41.00;;;;;;5034554;28;20025;-58
2023/06/06 07:21:00;;;;;;;2.63;2.30;;;26.00;41.00;;;;;;5034630;28;20030;-58
2023/06/06 07:23:26;;;;;;;4.40;2.72;;;25.90;40.90;;;;;;5034321;28;20034;-58
2023/06/06 07:25:52;;;;;;;3.58;2.85;;;25.90;40.90;;;;;;5034318;28;20125;-56
2023/06/06 07:28:18;;;;;;;4.40;2.60;;;25.90;41.00;;;;;;5034564;28;20101;-64
2023/06/06 07:30:44;;;;;;;5.78;2.40;;;25.90;40.80;;;;;;5034487;28;20469;-58
2023/06/06 07:33:10;;;;;;;3.92;2.20;;;25.90;40.40;;;;;;5034187;28;20429;-58
2023/06/06 07:35:36;;;;;;;2.58;2.00;;;26.00;40.30;;;;;;5034057;28;20108;-58
2023/06/06 07:38:02;;;;;;;4.07;2.10;;;26.00;40.60;;;;;;5034420;28;20034;-56
2023/06/06 07:40:28;;;;;;;5.03;2.20;;;26.00;40.00;;;;;;5034115;28;20025;-56
2023/06/06 07:42:54;;;;;;;4.80;2.40;;;26.00;40.00;;;;;;5032599;28;20060;-61
2023/06/06 07:45:21;;;;;;;3.22;2.17;;;26.00;40.00;;;;;;5034192;28;20029;-60
2023/06/06 07:47:47;;;;;;;2.85;2.25;;;26.00;40.00;;;;;;5034323;28;20026;-61
2023/06/06 07:50:13;;;;;;;2.67;1.75;;;26.10;40.20;;;;;;5034095;28;20033;-58
2023/06/06 07:52:43;;;;;;;3.05;2.10;;;26.10;40.30;;;;;;5034263;28;20025;-61
2023/06/06 07:55:11;;;;;;;2.42;2.17;;;26.10;40.70;;;;;;5034277;28;20504;-60
2023/06/06 07:57:39;;;;;;;4.05;2.20;;;26.10;41.30;;;;;;5033950;28;20029;-60
2023/06/06 08:00:10;;;;;;;3.33;2.22;;;26.00;41.70;;;;;;5033934;28;20026;-59
2023/06/06 08:02:37;;;;;;;3.60;2.70;;;25.90;42.30;;;;;;5033465;28;20095;-60
2023/06/06 08:05:03;;;;;;;5.75;2.75;;;25.80;43.90;;;;;;5033992;28;20033;-57
2023/06/06 08:07:29;;;;;;;6.93;2.83;;;25.80;44.70;;;;;;5033595;28;20030;-59
2023/06/06 08:09:55;;;;;;;3.20;2.40;;;25.70;45.20;;;;;;5033195;28;20416;-59
2023/06/06 08:12:20;;;;;;;3.28;2.50;;;25.70;45.90;;;;;;5033588;28;20044;-57
2023/06/06 08:14:46;;;;;;;3.55;2.58;;;25.60;46.10;;;;;;5033408;28;20030;-58
2023/06/06 08:17:12;;;;;;;3.47;2.35;;;25.60;46.00;;;;;;5033669;28;20433;-59
2023/06/06 08:19:38;;;;;;;2.58;2.38;;;25.60;46.20;;;;;;5033383;28;20029;-59
2023/06/06 08:22:04;;;;;;;2.80;2.50;;;25.50;46.30;;;;;;5033624;28;20030;-59
2023/06/06 08:24:30;;;;;;;4.82;2.50;;;25.40;46.40;;;;;;5032763;28;20104;-59
2023/06/06 08:26:57;;;;;;;3.88;2.40;;;25.40;47.00;;;;;;5033606;28;20105;-59
2023/06/06 08:29:22;;;;;;;2.42;2.22;;;25.40;47.10;;;;;;5033514;28;20041;-59
2023/06/06 08:31:48;;;;;;;4.45;2.72;;;25.30;47.40;;;;;;5033142;28;20030;-59
2023/06/06 08:34:15;;;;;;;4.53;2.70;;;25.20;47.90;;;;;;5033432;28;20045;-58
2023/06/06 08:36:40;;;;;;;4.10;2.70;;;25.20;48.30;;;;;;5033432;28;20080;-60
2023/06/06 08:39:06;;;;;;;3.90;2.80;;;25.20;48.60;;;;;;5032421;28;20426;-58
2023/06/06 08:41:35;;;;;;;4.32;2.88;;;25.20;48.60;;;;;;5031226;28;20067;-60
2023/06/06 08:44:04;;;;;;;2.90;2.53;;;25.10;48.90;;;;;;5033097;28;20411;-60
2023/06/06 08:46:35;;;;;;;5.28;2.85;;;25.00;49.00;;;;;;5031897;28;20096;-57
2023/06/06 08:49:04;;;;;;;3.53;2.55;;;25.00;49.00;;;;;;5032545;28;20113;-60
2023/06/06 08:51:31;;;;;;;3.45;2.60;;;24.90;49.20;;;;;;5031577;28;20024;-60
2023/06/06 08:53:58;;;;;;;5.10;2.75;;;24.80;48.90;;;;;;5032991;28;20029;-60
2023/06/06 08:56:26;;;;;;;5.43;2.95;;;24.70;48.80;;;;;;5032947;28;20481;-58
2023/06/06 08:58:52;;;;;;;4.63;2.60;;;24.60;49.30;;;;;;5032940;28;20095;-59
2023/06/06 09:01:19;;;;;;;4.15;2.60;;;24.60;49.70;;;;;;5032232;28;20050;-59
2023/06/06 09:03:46;;;;;;;3.42;2.75;;;24.60;50.20;;;;;;5032533;28;20037;-59
2023/06/06 09:06:12;;;;;;;3.17;2.58;;;24.50;50.70;;;;;;5032524;28;20021;-58
2023/06/06 09:08:39;;;;;;;3.88;2.78;;;24.50;50.70;;;;;;5032590;28;20057;-57
2023/06/06 09:11:05;;;;;;;2.95;2.35;;;24.50;50.60;;;;;;5032333;28;20026;-59
2023/06/06 09:13:31;;;;;;;3.47;2.58;;;24.50;49.90;;;;;;5032300;28;20481;-59
2023/06/06 09:15:57;;;;;;;4.05;2.60;;;24.40;50.30;;;;;;5031979;28;20034;-58
2023/06/06 09:18:29;;;;;;;3.38;2.60;;;24.40;50.80;;;;;;5032063;28;20029;-59
2023/06/06 09:20:56;;;;;;;4.43;2.28;;;24.40;50.80;;;;;;5030869;28;20026;-58
2023/06/06 09:23:22;;;;;;;3.42;2.63;;;24.40;50.40;;;;;;5030579;28;20025;-59
2023/06/06 09:25:48;;;;;;;4.05;2.60;;;24.40;50.10;;;;;;5030522;28;20481;-59
2023/06/06 09:28:13;;;;;;;4.50;2.55;;;24.30;50.30;;;;;;5031222;28;20038;-58
2023/06/06 09:30:39;;;;;;;3.17;2.65;;;24.30;50.40;;;;;;5030515;28;20025;-59
2023/06/06 09:33:05;;;;;;;3.97;2.30;;;24.30;51.10;;;;;;5030545;28;20104;-58
2023/06/06 09:35:31;;;;;;;2.85;2.58;;;24.30;51.40;;;;;;5030920;28;20026;-59
2023/06/06 09:38:05;;;;;;;4.38;2.55;;;24.30;51.00;;;;;;5031452;28;20135;-59
2023/06/06 09:40:31;;;;;;;2.80;2.50;;;24.30;50.50;;;;;;5031492;28;20029;-60
2023/06/06 09:42:58;;;;;;;4.13;2.47;;;24.30;50.00;;;;;;5031200;28;20112;-59
2023/06/06 09:45:24;;;;;;;3.95;2.60;;;24.20;48.90;;;;;;5031501;28;20152;-59
2023/06/06 09:47:50;;;;;;;3.28;2.33;;;24.20;48.10;;;;;;5030995;28;20017;-59
2023/06/06 09:50:18;;;;;;;4.93;2.63;;;24.10;46.90;;;;;;5031521;28;20040;-59
2023/06/06 09:52:44;;;;;;;5.30;2.55;;;24.10;46.70;;;;;;5031656;28;20033;-59
2023/06/06 09:55:13;;;;;;;3.53;2.40;;;24.10;46.70;;;;;;5031890;28;20428;-60
2023/06/06 09:57:39;;;;;;;4.78;2.60;;;24.10;47.20;;;;;;5031582;28;20029;-59
2023/06/06 10:00:10;;;;;;;2.72;2.30;;;24.10;47.70;;;;;;5031808;28;20083;-56
2023/06/06 10:02:42;;;;;;;2.92;2.22;;;24.20;47.80;;;;;;5031262;28;20481;-57
2023/06/06 10:05:12;;;;;;;4.80;2.13;;;24.20;47.10;;;;;;5031639;28;20425;-59
2023/06/06 10:07:41;;;;;;;3.08;2.17;;;24.20;46.90;;;;;;5031585;28;20116;-58
2023/06/06 10:10:11;;;;;;;3.47;2.42;;;24.20;46.80;;;;;;5031499;28;20025;-58
2023/06/06 10:12:37;;;;;;;;;;;24.20;46.70;;;;;;5032081;28;20133;-58
2023/06/06 10:15:05;;;;;;;3.80;2.35;;;24.20;47.40;;;;;;5031387;28;19944;-58
2023/06/06 10:17:36;;;;;;;4.38;2.13;;;24.20;47.90;;;;;;5031466;28;20437;-59
2023/06/06 10:20:06;;;;;;;4.35;2.47;;;24.20;48.60;;;;;;5030938;28;20366;-59
2023/06/06 10:22:34;;;;;;;5.65;2.50;;;24.20;48.30;;;;;;5031018;28;20022;-59
2023/06/06 10:25:01;;;;;;;3.30;2.20;;;24.20;47.70;;;;;;5031259;28;20052;-58
2023/06/06 10:27:34;;;;;;;3.83;2.50;;;24.20;46.90;;;;;;5031390;28;20396;-57
2023/06/06 10:30:18;;;;;;;3.65;2.53;;;24.20;47.90;;;;;;5031557;28;20037;-57
2023/06/06 10:32:50;;;;;;;3.45;2.63;;;24.10;48.10;;;;;;5031334;28;20484;-59
2023/06/06 10:35:17;;;;;;;3.97;2.72;;;24.10;48.80;;;;;;5031241;28;20021;-56
2023/06/06 10:38:09;;;;;;;7.00;2.60;;;24.10;48.00;;;;;;5031292;28;20025;-59
2023/06/06 10:40:51;;;;;;;3.78;2.20;;;24.10;47.50;;;;;;5031457;28;20112;-58
2023/06/06 10:43:34;;;;;;;5.20;2.40;;;24.10;46.80;;;;;;5030258;28;20018;-57
2023/06/06 10:46:02;;;;;;;3.35;2.25;;;24.10;46.40;;;;;;5031348;28;20536;-58
2023/06/06 10:48:39;;;;;;;4.13;2.38;;;24.10;45.50;;;;;;5035093;28;20148;-59
2023/06/06 10:51:05;;;;;;;2.45;2.10;;;24.10;45.90;;;;;;5035190;28;20362;-59
2023/06/06 10:53:31;;;;;;;5.85;2.80;;;24.10;45.70;;;;;;5031280;28;20026;-60
2023/06/06 10:55:57;;;;;;;2.28;2.08;;;24.10;45.90;;;;;;5032832;28;20040;-59
2023/06/06 10:58:33;;;;;;;2.75;2.10;;;24.10;46.00;;;;;;5033339;28;20029;-59
2023/06/06 11:01:06;;;;;;;3.00;2.30;;;24.10;46.40;;;;;;5032653;28;20049;-58
2023/06/06 11:03:39;;;;;;;3.83;2.30;;;24.10;45.50;;;;;;5029465;28;20034;-58
2023/06/06 11:06:07;;;;;;;4.22;2.40;;;24.10;46.00;;;;;;5030635;28;20030;-57
2023/06/06 11:08:40;;;;;;;3.60;2.30;;;24.10;46.00;;;;;;5024636;28;20072;-57
2023/06/06 11:11:15;;;;;;;4.68;2.60;;;24.10;46.40;;;;;;5025591;28;20381;-60
2023/06/06 11:14:04;;;;;;;2.65;2.33;;;24.10;46.80;;;;;;5028203;28;20029;-59
2023/06/06 11:16:43;;;;;;;3.67;2.65;;;24.10;46.70;;;;;;5028415;28;20370;-55
2023/06/06 11:19:11;;;;;;;6.15;2.40;;;24.10;46.80;;;;;;5027715;28;20025;-59
2023/06/06 11:21:43;;;;;;;2.72;2.30;;;24.00;47.10;;;;;;5028773;28;20048;-59
2023/06/06 11:24:10;;;;;;;6.40;2.35;;;24.00;46.90;;;;;;5025872;28;20739;-60
2023/06/06 11:26:37;;;;;;;3.47;2.00;;;24.10;46.90;;;;;;5026914;28;20105;-58
2023/06/06 11:29:04;;;;;;;3.70;2.30;;;24.10;46.90;;;;;;5025419;28;20593;-60
2023/06/06 11:31:31;;;;;;;4.35;2.70;;;24.10;46.70;;;;;;5022154;28;20054;-59
2023/06/06 11:34:07;;;;;;;3.63;2.42;;;24.00;46.50;;;;;;5026487;28;20413;-60
2023/06/06 11:36:34;;;;;;;2.78;2.40;;;24.10;46.50;;;;;;5032296;28;20044;-58
2023/06/06 11:39:01;;;;;;;3.58;2.28;;;24.00;47.70;;;;;;5025308;28;20033;-58
2023/06/06 11:41:30;;;;;;;3.85;2.80;;;24.10;46.60;;;;;;5032451;28;20067;-58
2023/06/06 11:43:56;;;;;;;3.90;2.30;;;24.10;46.30;;;;;;5029357;28;20507;-59
2023/06/06 11:46:22;;;;;;;5.10;2.40;;;24.00;45.90;;;;;;5030524;28;20057;-59
2023/06/06 11:48:59;;;;;;;4.65;2.25;;;24.00;45.60;;;;;;5028875;28;20492;-57
2023/06/06 11:51:25;;;;;;;5.32;2.35;;;24.00;46.60;;;;;;5024298;28;20036;-59
2023/06/06 11:53:51;;;;;;;3.60;2.42;;;24.10;46.70;;;;;;5033165;28;20033;-59
2023/06/06 11:56:17;;;;;;;5.55;2.60;;;24.00;46.70;;;;;;5031846;28;20034;-59
2023/06/06 11:58:43;;;;;;;3.60;2.65;;;24.10;46.80;;;;;;5029339;28;20026;-59
2023/06/06 12:01:10;;;;;;;3.33;2.30;;;24.10;46.10;;;;;;5031771;28;20369;-59
2023/06/06 12:03:40;;;;;;;3.72;2.50;;;24.10;46.20;;;;;;5033542;28;20040;-57
2023/06/06 12:06:07;;;;;;;4.50;2.70;;;24.10;46.00;;;;;;5033743;28;20018;-58
2023/06/06 12:08:37;;;;;;;4.00;2.50;;;24.10;46.00;;;;;;5033408;28;20274;-58
2023/06/06 12:11:26;;;;;;;2.75;2.10;;;24.10;46.00;;;;;;5033273;28;20022;-59
2023/06/06 12:13:53;;;;;;;4.00;2.90;;;24.10;46.30;;;;;;5033536;28;20036;-60
2023/06/06 12:16:27;;;;;;;3.70;2.47;;;24.00;46.00;;;;;;5032482;28;20029;-58
2023/06/06 12:18:56;;;;;;;2.80;2.30;;;24.10;46.20;;;;;;5032895;28;20564;-58
2023/06/06 12:21:23;;;;;;;3.33;2.70;;;24.10;45.70;;;;;;5033011;28;20532;-60
2023/06/06 12:23:49;;;;;;;3.40;2.50;;;24.10;46.20;;;;;;5033230;28;20120;-56
2023/06/06 12:26:16;;;;;;;3.35;2.33;;;24.00;46.30;;;;;;5033494;28;20030;-58
2023/06/06 12:29:09;;;;;;;2.80;2.38;;;24.10;46.90;;;;;;5033751;28;20033;-58
2023/06/06 12:31:37;;;;;;;4.03;2.45;;;24.10;47.00;;;;;;5033837;28;20550;-58
2023/06/06 12:34:03;;;;;;;3.67;2.60;;;24.00;47.10;;;;;;5032959;28;20025;-56
2023/06/06 12:36:29;;;;;;;4.93;2.92;;;24.00;47.20;;;;;;5033784;28;20068;-58
2023/06/06 12:39:00;;;;;;;6.50;2.78;;;24.10;47.20;;;;;;5033171;28;20076;-57
2023/06/06 12:41:43;;;;;;;4.90;3.10;;;24.00;46.90;;;;;;5033300;28;20080;-58
2023/06/06 12:44:15;;;;;;;5.15;3.15;;;24.00;46.90;;;;;;5032965;28;20064;-53
2023/06/06 12:46:44;;;;;;;5.90;3.40;;;24.00;47.30;;;;;;5033159;28;20022;-59
2023/06/06 12:49:10;;;;;;;6.57;3.33;;;24.10;47.00;;;;;;5033022;28;20063;-57
2023/06/06 12:51:39;;;;;;;4.28;3.05;;;24.10;46.50;;;;;;5033089;28;20156;-58